Time;durP1;ratioP1;P1;durP2;ratioP2;P2;SDS_P1;SDS_P2;PMS_P1;PMS_P2;Temp;Humidity;BMP_temperature;BMP_pressure;BME280_temperature;BME280_humidity;BME280_pressure;Samples;Min_cycle;Max_cycle;Signal;HPM_P1;HPM_P2
2023/07/26 00:04:51;;;;;;;4.17;2.70;;;18.30;46.10;;;;;;10485787;28;20301;-73
2023/07/26 00:09:54;;;;;;;3.13;2.83;;;18.30;46.00;;;;;;10485689;28;20231;-72
2023/07/26 00:14:59;;;;;;;2.90;2.70;;;18.20;46.10;;;;;;10484613;28;20323;-72
2023/07/26 00:20:03;;;;;;;4.63;3.20;;;18.20;46.80;;;;;;10484903;28;20221;-72
2023/07/26 00:25:07;;;;;;;2.90;2.70;;;18.10;46.50;;;;;;10485829;28;20515;-72
2023/07/26 00:30:14;;;;;;;2.93;2.73;;;18.10;47.10;;;;;;10483824;28;20256;-73
2023/07/26 00:35:21;;;;;;;3.20;3.00;;;18.10;47.10;;;;;;10484714;28;20240;-72
2023/07/26 00:40:25;;;;;;;3.33;3.00;;;18.10;47.10;;;;;;10485229;28;20251;-73
2023/07/26 00:45:31;;;;;;;4.43;3.40;;;18.10;46.90;;;;;;10487258;28;20669;-72
2023/07/26 00:50:34;;;;;;;4.27;3.20;;;18.00;47.00;;;;;;10492805;28;20691;-73
2023/07/26 00:55:38;;;;;;;3.33;3.13;;;17.90;46.90;;;;;;10492343;28;20600;-75
2023/07/26 01:00:45;;;;;;;3.90;3.50;;;17.80;46.80;;;;;;10492793;28;20238;-72
2023/07/26 01:06:02;;;;;;;4.57;4.23;;;17.80;47.30;;;;;;10491948;28;20236;-73
2023/07/26 01:11:14;;;;;;;4.80;4.43;;;17.80;47.80;;;;;;10491176;28;20656;-73
2023/07/26 01:16:18;;;;;;;4.43;4.03;;;17.80;47.10;;;;;;10491909;28;20235;-72
2023/07/26 01:21:22;;;;;;;4.50;4.20;;;17.80;47.20;;;;;;10490594;28;20240;-73
2023/07/26 01:26:26;;;;;;;4.80;4.40;;;17.70;46.70;;;;;;10491531;28;20232;-73
2023/07/26 01:31:30;;;;;;;4.97;4.60;;;17.70;47.20;;;;;;10491456;28;20228;-73
2023/07/26 01:36:35;;;;;;;4.33;3.97;;;17.70;46.70;;;;;;10491032;28;20228;-73
2023/07/26 01:41:40;;;;;;;4.30;3.90;;;17.70;47.00;;;;;;10489894;28;20247;-73
2023/07/26 01:46:44;;;;;;;4.30;3.90;;;17.70;47.50;;;;;;10490600;28;20231;-73
2023/07/26 01:51:47;;;;;;;4.13;3.83;;;17.80;47.10;;;;;;10487779;28;20236;-73
2023/07/26 01:56:52;;;;;;;4.57;4.17;;;17.80;46.80;;;;;;10489521;28;20234;-72
2023/07/26 02:01:55;;;;;;;4.37;4.07;;;17.80;47.20;;;;;;10488900;28;20585;-73
2023/07/26 02:07:00;;;;;;;4.50;4.10;;;17.80;46.80;;;;;;10481701;28;20317;-73
2023/07/26 02:12:05;;;;;;;4.53;4.13;;;17.80;46.80;;;;;;10480395;28;20259;-72
2023/07/26 02:17:09;;;;;;;4.30;4.00;;;17.80;47.10;;;;;;10485133;28;20310;-72
2023/07/26 02:22:12;;;;;;;4.30;4.00;;;17.90;46.90;;;;;;10489233;28;20231;-73
2023/07/26 02:27:18;;;;;;;4.33;4.03;;;17.80;46.80;;;;;;10489177;28;20654;-73
2023/07/26 02:32:21;;;;;;;4.10;3.80;;;17.80;46.90;;;;;;10487965;28;20567;-73
2023/07/26 02:37:24;;;;;;;3.80;3.50;;;17.70;46.70;;;;;;10488316;28;20281;-72
2023/07/26 02:42:29;;;;;;;3.43;3.13;;;17.70;46.70;;;;;;10488886;28;20680;-73
2023/07/26 02:47:32;;;;;;;3.93;3.10;;;17.80;46.80;;;;;;10488466;28;20230;-72
2023/07/26 02:52:36;;;;;;;3.80;3.30;;;17.80;46.80;;;;;;10476347;28;21085;-73
2023/07/26 02:57:41;;;;;;;3.23;3.03;;;17.80;46.80;;;;;;10479944;28;20232;-72
2023/07/26 03:02:44;;;;;;;2.70;2.50;;;17.80;46.80;;;;;;10479890;28;20303;-73
2023/07/26 03:07:47;;;;;;;3.50;2.63;;;17.80;46.80;;;;;;10478892;28;20306;-73
2023/07/26 03:12:52;;;;;;;4.20;3.07;;;17.80;46.80;;;;;;10478932;28;20255;-72
2023/07/26 03:17:55;;;;;;;3.10;2.80;;;17.70;46.80;;;;;;10479423;28;20236;-72
2023/07/26 03:22:58;;;;;;;3.77;2.87;;;17.70;46.70;;;;;;10478481;28;20227;-73
2023/07/26 03:28:04;;;;;;;3.70;3.40;;;17.70;46.70;;;;;;10479008;28;20666;-73
2023/07/26 03:33:09;;;;;;;3.27;3.00;;;17.60;46.60;;;;;;10478850;28;20686;-73
2023/07/26 03:38:12;;;;;;;4.17;3.77;;;17.60;46.60;;;;;;10478214;28;20228;-73
2023/07/26 03:43:17;;;;;;;3.80;3.40;;;17.50;46.50;;;;;;10479611;28;20291;-73
2023/07/26 03:48:20;;;;;;;3.97;3.67;;;17.50;47.00;;;;;;10485668;28;20240;-73
2023/07/26 03:53:23;;;;;;;3.60;3.30;;;17.40;46.70;;;;;;10492348;28;20235;-72
2023/07/26 03:58:28;;;;;;;4.07;3.77;;;17.40;46.90;;;;;;10493615;28;20255;-73
2023/07/26 04:03:32;;;;;;;4.20;3.90;;;17.50;47.70;;;;;;10493624;28;20376;-72
2023/07/26 04:08:35;;;;;;;4.50;4.00;;;17.50;46.50;;;;;;10494108;28;20281;-72
2023/07/26 04:13:39;;;;;;;4.40;4.00;;;17.50;46.60;;;;;;10493281;28;20232;-73
2023/07/26 04:18:43;;;;;;;4.67;4.27;;;17.50;46.80;;;;;;10493551;28;20244;-72
2023/07/26 04:23:47;;;;;;;4.33;4.00;;;17.60;46.60;;;;;;10493408;28;20311;-73
2023/07/26 04:28:51;;;;;;;5.17;4.67;;;17.50;46.50;;;;;;10492714;28;20678;-73
2023/07/26 04:33:55;;;;;;;4.77;4.37;;;17.50;47.00;;;;;;10492858;28;20251;-73
2023/07/26 04:38:58;;;;;;;4.73;4.33;;;17.40;46.90;;;;;;10491990;28;20236;-74
2023/07/26 04:44:02;;;;;;;5.00;4.60;;;17.40;47.20;;;;;;10491391;28;20224;-73
2023/07/26 04:49:06;;;;;;;5.57;5.03;;;17.30;47.30;;;;;;10486744;28;20312;-72
2023/07/26 04:54:09;;;;;;;6.10;5.67;;;17.20;47.00;;;;;;10475397;28;20228;-74
2023/07/26 04:59:13;;;;;;;6.43;5.83;;;17.20;47.10;;;;;;10460945;28;20237;-74
2023/07/26 05:04:17;;;;;;;6.60;6.00;;;17.20;47.50;;;;;;10464728;28;20731;-74
2023/07/26 05:09:20;;;;;;;6.50;5.90;;;17.20;47.60;;;;;;10466821;28;20225;-75
2023/07/26 05:14:25;;;;;;;7.77;5.23;;;17.20;47.90;;;;;;10466307;28;20233;-74
2023/07/26 05:19:28;;;;;;;6.70;6.10;;;17.20;48.40;;;;;;10463958;28;20307;-75
2023/07/26 05:24:31;;;;;;;7.13;6.53;;;17.30;48.30;;;;;;10462110;28;20276;-75
2023/07/26 05:29:36;;;;;;;7.50;6.70;;;17.30;48.00;;;;;;10462143;28;20248;-79
2023/07/26 05:34:39;;;;;;;7.60;6.90;;;17.40;48.30;;;;;;10467786;28;20237;-76
2023/07/26 05:39:42;;;;;;;6.63;6.13;;;17.40;47.90;;;;;;10458788;28;20641;-75
2023/07/26 05:44:47;;;;;;;7.70;6.90;;;17.50;47.90;;;;;;10463470;28;21963;-76
2023/07/26 05:49:50;;;;;;;8.00;7.20;;;17.60;48.10;;;;;;10463562;28;20303;-75
2023/07/26 05:54:53;;;;;;;8.47;7.53;;;17.70;47.60;;;;;;10462571;28;20596;-75
2023/07/26 05:59:58;;;;;;;8.73;8.10;;;17.70;47.20;;;;;;10460066;28;20329;-76
2023/07/26 06:05:01;;;;;;;8.67;7.87;;;17.70;46.90;;;;;;10456194;28;20311;-75
2023/07/26 06:10:05;;;;;;;9.40;8.53;;;17.70;46.80;;;;;;10461042;28;20221;-75
2023/07/26 06:15:10;;;;;;;8.67;7.97;;;17.70;47.30;;;;;;10468687;28;20232;-77
2023/07/26 06:20:14;;;;;;;8.00;7.30;;;17.70;47.80;;;;;;10463973;28;20605;-77
2023/07/26 06:25:17;;;;;;;8.90;8.20;;;17.70;47.50;;;;;;10465555;28;20229;-77
2023/07/26 06:30:22;;;;;;;9.70;8.80;;;17.80;47.20;;;;;;10457922;28;20229;-77
2023/07/26 06:35:25;;;;;;;9.80;9.00;;;17.80;47.60;;;;;;10467182;28;20316;-77
2023/07/26 06:40:29;;;;;;;9.13;8.33;;;17.80;47.30;;;;;;10467860;28;20231;-76
2023/07/26 06:45:34;;;;;;;10.67;8.67;;;17.80;47.40;;;;;;10463221;28;20230;-77
2023/07/26 06:50:39;;;;;;;9.70;8.83;;;17.80;47.50;;;;;;10459758;28;20229;-77
2023/07/26 06:55:43;;;;;;;9.73;8.83;;;17.90;47.30;;;;;;10459127;28;20227;-77
2023/07/26 07:00:47;;;;;;;9.40;8.70;;;17.90;46.90;;;;;;10468254;28;20259;-76
2023/07/26 07:05:50;;;;;;;10.37;9.53;;;17.90;47.00;;;;;;10460584;28;20886;-77
2023/07/26 07:10:54;;;;;;;10.67;9.33;;;17.90;47.30;;;;;;10462404;28;20224;-77
2023/07/26 07:15:58;;;;;;;10.07;9.27;;;17.90;47.40;;;;;;10464337;28;20274;-76
2023/07/26 07:21:03;;;;;;;10.07;9.10;;;18.00;47.60;;;;;;10465496;28;20248;-76
2023/07/26 07:26:06;;;;;;;9.23;8.53;;;18.10;47.40;;;;;;10472668;28;20323;-76
2023/07/26 07:31:11;;;;;;;9.83;8.93;;;18.10;47.60;;;;;;10467521;28;21055;-77
2023/07/26 07:36:17;;;;;;;9.13;8.40;;;18.10;47.30;;;;;;10476283;28;20291;-76
2023/07/26 07:41:21;;;;;;;10.03;9.13;;;18.20;47.20;;;;;;10465961;28;20239;-76
2023/07/26 07:46:28;;;;;;;10.20;9.30;;;18.40;47.30;;;;;;10470690;28;20598;-76
2023/07/26 07:51:31;;;;;;;10.07;9.20;;;18.40;46.90;;;;;;10465386;28;20253;-77
2023/07/26 07:56:35;;;;;;;10.07;9.17;;;18.50;46.70;;;;;;10474130;28;20312;-76
2023/07/26 08:01:39;;;;;;;11.10;9.43;;;18.50;46.50;;;;;;10466119;28;20764;-77
2023/07/26 08:06:43;;;;;;;10.40;9.50;;;18.50;45.40;;;;;;10467104;28;20695;-77
2023/07/26 08:11:46;;;;;;;9.70;8.90;;;18.60;46.10;;;;;;10469472;28;20223;-77
2023/07/26 08:16:50;;;;;;;8.97;8.27;;;18.60;46.20;;;;;;10471263;28;20278;-77
2023/07/26 08:21:55;;;;;;;10.27;9.37;;;18.60;46.40;;;;;;10461526;28;20700;-77
2023/07/26 08:27:00;;;;;;;8.27;7.43;;;18.60;46.50;;;;;;10469395;28;20584;-77
2023/07/26 08:32:05;;;;;;;5.97;5.57;;;18.60;46.20;;;;;;10461050;28;20232;-76
2023/07/26 08:37:09;;;;;;;6.37;5.87;;;18.60;45.60;;;;;;10465543;28;20240;-77
2023/07/26 08:42:12;;;;;;;7.57;6.97;;;18.70;46.30;;;;;;10468060;28;20232;-77
2023/07/26 08:47:19;;;;;;;8.70;8.00;;;18.80;46.40;;;;;;10467956;28;20646;-76
2023/07/26 08:52:23;;;;;;;9.03;8.33;;;18.90;46.00;;;;;;10472778;28;21066;-77
2023/07/26 08:57:26;;;;;;;9.80;8.83;;;19.00;46.20;;;;;;10467451;28;20235;-77
2023/07/26 09:02:34;;;;;;;8.87;8.17;;;19.00;45.80;;;;;;10468271;28;20315;-77
2023/07/26 09:07:37;;;;;;;7.07;6.47;;;19.00;45.20;;;;;;10462741;28;20228;-78
2023/07/26 09:12:40;;;;;;;7.43;6.80;;;18.80;45.10;;;;;;10464400;28;20232;-77
2023/07/26 09:17:45;;;;;;;7.90;6.97;;;18.60;45.60;;;;;;10473501;28;20238;-76
2023/07/26 09:22:48;;;;;;;8.77;7.20;;;18.50;46.00;;;;;;10464231;28;20231;-77
2023/07/26 09:27:56;;;;;;;8.30;7.33;;;18.30;46.70;;;;;;10461839;28;20706;-77
2023/07/26 09:33:02;;;;;;;7.23;6.67;;;18.30;47.20;;;;;;10469493;28;20227;-76
2023/07/26 09:38:10;;;;;;;6.37;5.87;;;18.40;47.30;;;;;;10465538;28;20217;-77
2023/07/26 09:43:14;;;;;;;8.30;5.40;;;18.50;47.40;;;;;;10466319;28;20331;-76
2023/07/26 09:48:18;;;;;;;5.87;5.13;;;18.60;47.20;;;;;;10471735;28;20997;-77
2023/07/26 09:53:23;;;;;;;5.30;4.90;;;18.70;47.00;;;;;;10464216;28;20237;-77
2023/07/26 09:58:31;;;;;;;4.97;4.57;;;18.90;46.30;;;;;;10472234;28;20229;-77
2023/07/26 10:03:39;;;;;;;4.63;4.20;;;19.10;47.00;;;;;;10464076;28;20229;-77
2023/07/26 10:08:45;;;;;;;4.33;3.60;;;19.40;43.90;;;;;;10467765;28;20329;-76
2023/07/26 10:13:50;;;;;;;3.70;3.40;;;19.70;44.20;;;;;;10466020;28;20231;-76
2023/07/26 10:18:59;;;;;;;4.63;3.67;;;19.90;43.70;;;;;;10471191;28;20220;-76
2023/07/26 10:24:04;;;;;;;4.80;4.40;;;20.20;42.80;;;;;;10464961;28;20290;-76
2023/07/26 10:29:07;;;;;;;4.67;3.93;;;20.40;43.50;;;;;;10472650;28;20320;-76
2023/07/26 10:34:20;;;;;;;5.50;4.03;;;20.50;43.80;;;;;;10462220;28;20598;-76
2023/07/26 10:39:32;;;;;;;4.20;3.80;;;20.70;41.40;;;;;;10467889;28;20333;-76
2023/07/26 10:44:41;;;;;;;4.27;3.90;;;20.90;41.30;;;;;;10462996;28;20665;-76
2023/07/26 10:49:47;;;;;;;3.50;3.20;;;20.90;40.90;;;;;;10456570;28;20225;-76
2023/07/26 10:54:52;;;;;;;3.20;3.00;;;20.90;40.50;;;;;;10472824;28;20347;-76
2023/07/26 10:59:57;;;;;;;3.83;3.50;;;20.80;42.20;;;;;;10480187;28;20223;-76
2023/07/26 11:05:03;;;;;;;3.87;3.33;;;20.90;42.70;;;;;;10478587;28;20331;-76
2023/07/26 11:10:18;;;;;;;3.80;3.50;;;21.10;42.90;;;;;;10477318;28;20622;-76
2023/07/26 11:15:29;;;;;;;3.87;3.57;;;21.30;40.40;;;;;;10473555;28;20260;-76
2023/07/26 11:20:55;;;;;;;3.57;3.27;;;21.50;39.60;;;;;;10469080;28;20736;-77
2023/07/26 11:26:00;;;;;;;5.07;3.60;;;21.50;40.70;;;;;;10482148;28;20259;-78
2023/07/26 11:31:03;;;;;;;3.83;3.00;;;21.40;40.40;;;;;;10478402;28;20227;-78
2023/07/26 11:36:08;;;;;;;3.03;2.30;;;21.20;40.70;;;;;;10479472;28;20311;-76
2023/07/26 11:41:17;;;;;;;3.37;2.10;;;21.00;40.90;;;;;;10485560;28;20695;-76
2023/07/26 11:46:27;;;;;;;1.80;1.70;;;20.80;40.50;;;;;;10492470;28;20822;-76
2023/07/26 11:51:33;;;;;;;1.80;1.70;;;20.60;39.70;;;;;;10492531;28;20223;-75
2023/07/26 11:56:37;;;;;;;2.13;1.80;;;20.30;39.50;;;;;;10480102;28;20250;-76
2023/07/26 12:01:41;;;;;;;1.90;1.80;;;20.00;40.20;;;;;;10492518;28;20228;-76
2023/07/26 12:06:46;;;;;;;1.70;1.60;;;19.80;40.60;;;;;;10490821;28;20228;-76
2023/07/26 12:11:51;;;;;;;3.57;1.83;;;19.60;42.00;;;;;;10477628;28;20700;-75
2023/07/26 12:16:55;;;;;;;2.10;2.00;;;19.50;41.80;;;;;;10481819;28;20327;-77
2023/07/26 12:22:01;;;;;;;3.50;2.20;;;19.40;42.20;;;;;;10482579;28;20781;-76
2023/07/26 12:27:05;;;;;;;2.33;2.13;;;19.40;42.60;;;;;;10480176;28;20307;-75
2023/07/26 12:32:12;;;;;;;1.60;1.50;;;19.50;43.40;;;;;;10476013;28;20242;-76
2023/07/26 12:37:17;;;;;;;1.10;1.10;;;19.60;42.90;;;;;;10481950;28;20952;-75
2023/07/26 12:42:20;;;;;;;2.07;1.13;;;19.70;43.00;;;;;;10481621;28;20228;-75
2023/07/26 12:47:23;;;;;;;1.37;1.30;;;19.80;41.90;;;;;;10483126;28;20348;-75
2023/07/26 12:52:37;;;;;;;1.27;1.17;;;19.90;42.10;;;;;;10481501;28;20244;-75
2023/07/26 12:57:41;;;;;;;1.47;1.37;;;19.90;41.30;;;;;;10482229;28;20228;-74
2023/07/26 13:02:44;;;;;;;1.37;1.27;;;19.90;41.50;;;;;;10482841;28;20220;-75
2023/07/26 13:07:50;;;;;;;1.30;1.20;;;19.90;41.30;;;;;;10480122;28;20221;-75
2023/07/26 13:12:54;;;;;;;1.80;1.33;;;20.00;40.60;;;;;;10462354;28;20239;-75
2023/07/26 13:17:57;;;;;;;1.27;1.17;;;20.10;40.80;;;;;;10458892;28;20319;-76
2023/07/26 13:23:02;;;;;;;1.27;1.17;;;20.20;41.00;;;;;;10458815;28;20225;-74
2023/07/26 13:28:05;;;;;;;1.63;1.20;;;20.20;40.10;;;;;;10457969;28;20220;-74
2023/07/26 13:33:08;;;;;;;1.40;1.30;;;20.20;40.10;;;;;;10456119;28;20248;-74
2023/07/26 13:38:14;;;;;;;2.10;1.10;;;20.30;40.60;;;;;;10459204;28;20224;-74
2023/07/26 13:43:17;;;;;;;1.30;1.30;;;20.30;39.60;;;;;;10463637;28;20319;-75
2023/07/26 13:48:20;;;;;;;1.30;1.20;;;20.20;39.80;;;;;;10462301;28;20251;-75
2023/07/26 13:53:25;;;;;;;1.30;1.20;;;20.20;40.00;;;;;;10457550;28;20282;-73
2023/07/26 13:58:28;;;;;;;1.40;1.30;;;20.20;40.50;;;;;;10461145;28;20243;-75
2023/07/26 14:03:31;;;;;;;2.53;1.20;;;20.30;40.70;;;;;;10468199;28;20228;-74
2023/07/26 14:08:36;;;;;;;1.57;1.10;;;20.40;40.40;;;;;;10461421;28;20725;-75
2023/07/26 14:13:39;;;;;;;1.50;1.40;;;20.50;39.80;;;;;;10457803;28;20315;-75
2023/07/26 14:18:42;;;;;;;1.47;0.90;;;20.70;39.80;;;;;;10455046;28;20232;-74
2023/07/26 14:23:47;;;;;;;1.20;1.10;;;20.80;39.30;;;;;;10458269;28;20232;-74
2023/07/26 14:28:51;;;;;;;1.30;1.20;;;20.90;38.20;;;;;;10462609;28;20256;-74
2023/07/26 14:33:54;;;;;;;1.00;1.00;;;20.80;38.80;;;;;;10452396;28;20239;-74
2023/07/26 14:38:59;;;;;;;0.83;0.83;;;20.80;39.10;;;;;;10464997;28;20236;-74
2023/07/26 14:44:02;;;;;;;1.20;1.00;;;20.80;39.30;;;;;;10456823;28;20225;-74
2023/07/26 14:49:05;;;;;;;1.10;1.10;;;20.80;39.00;;;;;;10456823;28;20240;-74
2023/07/26 14:54:10;;;;;;;1.53;1.20;;;20.70;38.90;;;;;;10460413;28;20224;-74
2023/07/26 14:59:13;;;;;;;1.63;1.10;;;20.60;38.80;;;;;;10458636;28;20716;-74
2023/07/26 15:04:16;;;;;;;1.33;1.20;;;20.60;39.20;;;;;;10460973;28;20712;-74
2023/07/26 15:09:21;;;;;;;1.17;1.10;;;20.60;39.10;;;;;;10461261;28;20240;-74
2023/07/26 15:14:24;;;;;;;1.53;1.40;;;20.60;38.60;;;;;;10455683;28;20274;-74
2023/07/26 15:19:27;;;;;;;1.20;1.07;;;20.50;38.60;;;;;;10462567;28;20237;-74
2023/07/26 15:24:32;;;;;;;1.63;1.30;;;20.50;39.30;;;;;;10453505;28;20227;-76
2023/07/26 15:29:35;;;;;;;1.47;1.37;;;20.50;39.20;;;;;;10469145;28;20271;-77
2023/07/26 15:34:40;;;;;;;1.30;1.20;;;20.50;39.80;;;;;;10465467;28;20312;-75
2023/07/26 15:39:45;;;;;;;1.30;1.20;;;20.60;39.50;;;;;;10465767;28;20460;-75
2023/07/26 15:44:50;;;;;;;1.40;1.30;;;20.70;39.30;;;;;;10462455;28;20229;-77
2023/07/26 15:49:56;;;;;;;1.20;1.10;;;20.80;38.90;;;;;;10484119;28;20223;-76
2023/07/26 15:55:01;;;;;;;1.13;1.13;;;20.80;38.90;;;;;;10467538;28;20884;-76
2023/07/26 16:00:05;;;;;;;1.10;1.10;;;20.80;38.50;;;;;;10467951;28;20299;-74
2023/07/26 16:05:08;;;;;;;1.23;1.17;;;20.70;38.10;;;;;;10476487;28;20311;-74
2023/07/26 16:10:13;;;;;;;1.20;1.10;;;20.60;38.00;;;;;;10492577;28;20586;-74
2023/07/26 16:15:16;;;;;;;1.17;1.17;;;20.50;37.30;;;;;;10498384;28;20236;-74
2023/07/26 16:20:22;;;;;;;1.27;1.20;;;20.40;38.20;;;;;;10490594;28;20232;-75
2023/07/26 16:25:27;;;;;;;1.40;1.30;;;20.40;38.10;;;;;;10477360;28;20247;-75
2023/07/26 16:30:30;;;;;;;1.30;1.30;;;20.30;37.20;;;;;;10493908;28;20228;-75
2023/07/26 16:35:33;;;;;;;1.50;1.40;;;20.30;38.10;;;;;;10481947;28;20236;-74
2023/07/26 16:40:39;;;;;;;1.30;1.20;;;20.30;37.90;;;;;;10475221;28;20748;-74
2023/07/26 16:45:42;;;;;;;2.50;1.70;;;20.20;37.50;;;;;;10482023;28;20259;-74
2023/07/26 16:50:46;;;;;;;1.60;1.50;;;20.10;38.00;;;;;;10477893;28;20244;-75
2023/07/26 16:55:50;;;;;;;1.47;1.37;;;19.90;38.60;;;;;;10476395;28;20239;-74
2023/07/26 17:00:53;;;;;;;1.83;1.73;;;19.80;38.60;;;;;;10476271;28;20843;-74
2023/07/26 17:05:57;;;;;;;1.83;1.73;;;19.60;39.00;;;;;;10482303;28;20330;-74
2023/07/26 17:11:02;;;;;;;2.00;1.80;;;19.50;38.90;;;;;;10479437;28;20320;-74
2023/07/26 17:16:06;;;;;;;2.40;1.60;;;19.40;39.10;;;;;;10484230;28;20229;-74
2023/07/26 17:21:09;;;;;;;1.97;1.60;;;19.10;39.50;;;;;;10487187;28;20787;-74
2023/07/26 17:26:14;;;;;;;1.70;1.60;;;19.00;39.80;;;;;;10475751;28;20256;-74
2023/07/26 17:31:17;;;;;;;1.60;1.50;;;19.00;40.00;;;;;;10482330;28;20236;-72
2023/07/26 17:36:21;;;;;;;1.23;1.20;;;18.90;40.00;;;;;;10476982;28;21048;-73
2023/07/26 17:41:25;;;;;;;1.47;1.37;;;18.90;40.00;;;;;;10480101;28;20234;-73
2023/07/26 17:46:30;;;;;;;1.40;1.30;;;18.90;39.70;;;;;;10479283;28;20263;-72
2023/07/26 17:51:34;;;;;;;1.87;1.50;;;18.90;39.50;;;;;;10471515;28;20330;-73
2023/07/26 17:56:38;;;;;;;1.60;1.50;;;18.80;39.50;;;;;;10479263;28;20943;-72
2023/07/26 18:01:42;;;;;;;2.07;1.60;;;18.80;39.50;;;;;;10478681;28;20255;-72
2023/07/26 18:06:45;;;;;;;1.40;1.30;;;18.70;39.40;;;;;;10467987;28;20261;-73
2023/07/26 18:11:49;;;;;;;1.50;1.40;;;18.70;39.40;;;;;;10470511;28;20625;-73
2023/07/26 18:16:54;;;;;;;2.40;1.80;;;18.70;39.00;;;;;;10470483;28;20939;-73
2023/07/26 18:22:00;;;;;;;1.87;1.77;;;18.60;39.10;;;;;;10470473;28;21095;-72
2023/07/26 18:27:05;;;;;;;1.80;1.70;;;18.60;39.10;;;;;;10460520;28;20228;-70
2023/07/26 18:32:09;;;;;;;1.30;1.20;;;18.50;39.00;;;;;;10470712;28;20228;-71
2023/07/26 18:37:12;;;;;;;2.70;1.60;;;18.50;39.20;;;;;;10470847;28;20657;-73
2023/07/26 18:42:17;;;;;;;2.33;1.70;;;18.50;39.10;;;;;;10471474;28;20256;-74
2023/07/26 18:47:20;;;;;;;2.40;1.60;;;18.40;38.70;;;;;;10479502;28;20228;-75
2023/07/26 18:52:23;;;;;;;2.27;1.70;;;18.30;39.00;;;;;;10458628;28;20227;-75
2023/07/26 18:57:28;;;;;;;1.93;1.57;;;18.10;39.10;;;;;;10469652;28;20862;-75
2023/07/26 19:02:31;;;;;;;2.30;1.40;;;18.00;39.10;;;;;;10479685;28;20224;-75
2023/07/26 19:07:34;;;;;;;2.97;1.63;;;18.00;39.50;;;;;;10475493;28;20224;-74
2023/07/26 19:12:39;;;;;;;1.37;1.27;;;17.90;39.80;;;;;;10469963;28;20224;-75
2023/07/26 19:17:43;;;;;;;2.40;1.30;;;17.90;40.10;;;;;;10487199;28;20231;-75
2023/07/26 19:22:47;;;;;;;1.60;1.50;;;17.80;39.90;;;;;;10471900;28;20229;-73
2023/07/26 19:27:51;;;;;;;1.60;1.50;;;17.80;40.30;;;;;;10486594;28;20302;-73
2023/07/26 19:32:55;;;;;;;2.83;1.40;;;17.70;40.60;;;;;;10492507;28;20247;-73
2023/07/26 19:37:59;;;;;;;1.77;1.60;;;17.60;40.60;;;;;;10492500;28;20303;-73
2023/07/26 19:43:04;;;;;;;2.57;1.90;;;17.60;40.80;;;;;;10474326;28;20258;-77
2023/07/26 19:48:07;;;;;;;2.33;1.87;;;17.50;41.20;;;;;;10496019;28;20629;-76
2023/07/26 19:53:10;;;;;;;2.27;2.00;;;17.50;41.40;;;;;;10496142;28;20232;-75
2023/07/26 19:58:15;;;;;;;2.77;1.90;;;17.40;41.40;;;;;;10493298;28;20705;-73
2023/07/26 20:03:21;;;;;;;2.43;1.70;;;17.40;42.30;;;;;;10490502;28;20644;-72
2023/07/26 20:08:25;;;;;;;2.47;2.10;;;17.30;41.90;;;;;;10490199;28;20336;-73
2023/07/26 20:13:30;;;;;;;2.30;1.97;;;17.20;42.30;;;;;;10491357;28;20230;-74
2023/07/26 20:18:33;;;;;;;2.20;2.00;;;17.10;43.10;;;;;;10514973;28;20234;-75
2023/07/26 20:23:36;;;;;;;2.40;2.20;;;17.10;42.90;;;;;;10459639;28;20231;-73
2023/07/26 20:28:41;;;;;;;2.30;2.10;;;17.10;43.00;;;;;;10453811;28;20779;-73
2023/07/26 20:33:44;;;;;;;2.33;2.13;;;17.10;43.70;;;;;;10466772;28;20230;-74
2023/07/26 20:38:47;;;;;;;2.77;2.20;;;17.10;43.30;;;;;;10481355;28;20232;-74
2023/07/26 20:43:52;;;;;;;4.53;2.50;;;17.10;43.50;;;;;;10485497;28;20228;-73
2023/07/26 20:48:55;;;;;;;2.30;2.10;;;17.10;44.10;;;;;;10467537;28;20251;-74
2023/07/26 20:53:58;;;;;;;3.80;2.43;;;17.00;43.70;;;;;;10474318;28;20237;-74
2023/07/26 20:59:03;;;;;;;2.73;2.53;;;17.00;43.80;;;;;;10484041;28;20278;-74
2023/07/26 21:04:06;;;;;;;4.47;2.50;;;17.00;44.40;;;;;;10445297;28;20221;-73
2023/07/26 21:09:09;;;;;;;2.30;2.10;;;17.00;44.00;;;;;;10444760;28;20225;-74
2023/07/26 21:14:14;;;;;;;3.57;2.57;;;17.00;44.00;;;;;;10447458;28;20772;-73
2023/07/26 21:19:17;;;;;;;2.80;2.33;;;17.00;44.60;;;;;;10437871;28;20228;-73
2023/07/26 21:24:20;;;;;;;3.50;2.20;;;17.00;44.00;;;;;;10435403;28;20709;-73
2023/07/26 21:29:27;;;;;;;2.40;2.20;;;17.00;44.00;;;;;;10438678;28;20286;-74
2023/07/26 21:34:31;;;;;;;2.37;2.17;;;16.90;44.50;;;;;;10446291;28;20283;-74
2023/07/26 21:39:34;;;;;;;2.70;2.50;;;16.90;43.90;;;;;;10448900;28;20727;-73
2023/07/26 21:44:38;;;;;;;2.80;2.60;;;16.80;44.10;;;;;;10486594;28;20332;-74
2023/07/26 21:49:42;;;;;;;2.27;2.07;;;16.70;44.50;;;;;;10487420;28;20303;-73
2023/07/26 21:54:45;;;;;;;2.57;2.37;;;16.70;44.10;;;;;;10486445;28;20232;-73
2023/07/26 21:59:49;;;;;;;2.50;2.30;;;16.70;44.10;;;;;;10474314;28;20311;-74
2023/07/26 22:04:52;;;;;;;2.43;2.23;;;16.60;44.50;;;;;;10475773;28;20228;-73
2023/07/26 22:09:56;;;;;;;2.50;2.20;;;16.60;44.10;;;;;;10476343;28;20258;-74
2023/07/26 22:15:01;;;;;;;2.43;2.10;;;16.60;44.20;;;;;;10482358;28;20232;-74
2023/07/26 22:20:04;;;;;;;2.43;1.90;;;16.60;44.80;;;;;;10449679;28;20667;-73
2023/07/26 22:25:08;;;;;;;3.23;2.27;;;16.60;44.50;;;;;;10482195;28;20234;-74
2023/07/26 22:30:13;;;;;;;1.80;1.70;;;16.60;44.50;;;;;;10482511;28;20290;-73
2023/07/26 22:35:18;;;;;;;2.00;1.80;;;16.80;44.80;;;;;;10480033;28;20228;-74
2023/07/26 22:40:21;;;;;;;2.67;1.97;;;16.90;44.10;;;;;;10477046;28;21165;-74
2023/07/26 22:45:29;;;;;;;3.50;2.10;;;16.90;43.70;;;;;;10477589;28;20743;-74
2023/07/26 22:50:32;;;;;;;2.30;2.10;;;16.90;44.10;;;;;;10484209;28;20328;-74
2023/07/26 22:55:35;;;;;;;2.77;1.97;;;16.90;43.70;;;;;;10479669;28;20811;-74
2023/07/26 23:00:40;;;;;;;2.30;2.10;;;17.00;43.80;;;;;;10479040;28;20259;-74
2023/07/26 23:05:43;;;;;;;2.90;2.10;;;17.00;43.90;;;;;;10464589;28;20807;-74
2023/07/26 23:10:47;;;;;;;2.50;2.20;;;17.00;43.50;;;;;;10485290;28;20311;-75
2023/07/26 23:15:51;;;;;;;2.20;2.00;;;17.10;43.60;;;;;;10485212;28;20238;-73
2023/07/26 23:20:55;;;;;;;1.73;1.57;;;17.10;43.50;;;;;;10485406;28;20537;-74
2023/07/26 23:25:58;;;;;;;4.07;1.90;;;17.10;43.10;;;;;;10482641;28;20263;-74
2023/07/26 23:31:06;;;;;;;3.27;1.87;;;17.10;43.10;;;;;;10480554;28;20230;-73
2023/07/26 23:36:10;;;;;;;3.97;1.97;;;17.10;43.20;;;;;;10480517;28;20686;-74
2023/07/26 23:41:13;;;;;;;1.90;1.77;;;17.10;42.70;;;;;;10483308;28;20700;-74
2023/07/26 23:46:17;;;;;;;1.90;1.80;;;17.10;42.60;;;;;;10482223;28;20299;-74
2023/07/26 23:51:22;;;;;;;1.70;1.50;;;17.10;42.60;;;;;;10479624;28;20232;-74
2023/07/26 23:56:25;;;;;;;2.53;1.97;;;17.10;42.50;;;;;;10481749;28;20228;-74
